Huvudsida
METAR-TAF:

METAR-TAF

Flygplatser :

Khartoum, Sudan

latitud: 15-36N, longitud: 032-33E, höjd: 382 m

Aktuellt väderrapport

Denna rapport gjordes för 41 minuter sedan, klockan 18:00 UTC
Vind 6 kt från nord
Temperatur 26°C
Fuktighet 18%
Tryck 1016 hPa
Sikt 10 km eller mer
Inga moln under 1 500 m eller inga cumulonimbus

METAR: HSSS 161800Z 36006KT CAVOK 26/00 Q1016 NOSIG

Tid: 21:41 (18:41 UTC)

Väderprognos

Denna rapport gjordes för 1 timme och 41 minuter sedan, klockan 17:00 UTC
Prognos gäller från 16 kl. 18 UTC till 17 kl. 24 UTC
Vind 8 kt från nord i byarna ända upp till 18 kt
Sikt 10 km eller mer
Inga moln under 1 500 m eller inga cumulonimbus
Temporärt
från 17 kl. 04 UTC till 17 kl. 07 UTC
Sikt: 6000 m
Klar himmel

TAF: HSSS 161700Z 1618/1724 36008G18KT CAVOK TEMPO 1704/1707 6000 SKC

Aktuella väderrapporter och prognoser från 4000 flygplatser (METAR- och TAF-rapporter).

De tillgängliga stationerna syns som gula och röda prickar på kartan.

För musen över prickarna för att se namnen på stationerna.

Klicka sedan för att få väderrapporter och prognoser.

För att ändra kartan: Klicka på de gröna knapparna med ett svart kors på för att zooma in; den gröna knappen med ett streck på för att zooma ut; eller på de gröna pilarna för angränsande kartor.


METAR-TAF: